sensor_id;sensor_type;location;lat;lon;timestamp;pressure;altitude;pressure_sealevel;temperature;humidity
71938;BME280;59810;48.800;9.086;2022-10-17T00:00:30;98174.78;;;14.01;87.75
71938;BME280;59810;48.800;9.086;2022-10-17T00:02:56;98178.00;;;13.98;87.94
71938;BME280;59810;48.800;9.086;2022-10-17T00:05:22;98173.66;;;13.97;88.65
71938;BME280;59810;48.800;9.086;2022-10-17T00:07:49;98175.53;;;13.96;88.75
71938;BME280;59810;48.800;9.086;2022-10-17T00:10:14;98178.31;;;14.01;87.69
71938;BME280;59810;48.800;9.086;2022-10-17T00:12:40;98180.38;;;13.89;87.97
71938;BME280;59810;48.800;9.086;2022-10-17T00:15:06;98169.78;;;13.88;88.40
71938;BME280;59810;48.800;9.086;2022-10-17T00:17:32;98174.44;;;13.92;88.45
71938;BME280;59810;48.800;9.086;2022-10-17T00:20:02;98178.19;;;13.86;88.45
71938;BME280;59810;48.800;9.086;2022-10-17T00:22:27;98182.22;;;13.84;88.66
71938;BME280;59810;48.800;9.086;2022-10-17T00:24:53;98192.22;;;13.78;89.33
71938;BME280;59810;48.800;9.086;2022-10-17T00:27:18;98189.50;;;13.78;88.44
71938;BME280;59810;48.800;9.086;2022-10-17T00:29:48;98193.25;;;13.72;89.03
71938;BME280;59810;48.800;9.086;2022-10-17T00:32:17;98188.25;;;13.64;89.42
71938;BME280;59810;48.800;9.086;2022-10-17T00:34:43;98190.16;;;13.63;90.00
71938;BME280;59810;48.800;9.086;2022-10-17T00:37:08;98190.22;;;13.68;88.93
71938;BME280;59810;48.800;9.086;2022-10-17T00:39:37;98190.97;;;13.64;89.10
71938;BME280;59810;48.800;9.086;2022-10-17T00:42:02;98191.50;;;13.61;89.43
71938;BME280;59810;48.800;9.086;2022-10-17T00:46:55;98189.66;;;13.66;89.76
71938;BME280;59810;48.800;9.086;2022-10-17T00:49:25;98188.34;;;13.69;89.49
71938;BME280;59810;48.800;9.086;2022-10-17T00:51:53;98191.56;;;13.66;89.11
71938;BME280;59810;48.800;9.086;2022-10-17T00:54:22;98186.75;;;13.73;89.15
71938;BME280;59810;48.800;9.086;2022-10-17T00:56:48;98189.50;;;13.78;88.85
71938;BME280;59810;48.800;9.086;2022-10-17T00:59:16;98188.16;;;13.81;89.31
71938;BME280;59810;48.800;9.086;2022-10-17T01:01:50;98197.69;;;13.83;89.04
71938;BME280;59810;48.800;9.086;2022-10-17T01:04:18;98183.56;;;13.81;88.83
71938;BME280;59810;48.800;9.086;2022-10-17T01:06:43;98185.50;;;13.86;89.29
71938;BME280;59810;48.800;9.086;2022-10-17T01:09:09;98187.44;;;13.90;88.88
71938;BME280;59810;48.800;9.086;2022-10-17T01:11:45;98194.72;;;13.85;88.80
71938;BME280;59810;48.800;9.086;2022-10-17T01:17:12;98193.91;;;13.84;88.55
71938;BME280;59810;48.800;9.086;2022-10-17T01:24:48;98188.38;;;13.74;88.22
71938;BME280;59810;48.800;9.086;2022-10-17T01:33:19;98195.31;;;13.65;89.47
71938;BME280;59810;48.800;9.086;2022-10-17T01:36:00;98193.06;;;13.57;89.21
71938;BME280;59810;48.800;9.086;2022-10-17T01:38:37;98189.50;;;13.51;89.14
71938;BME280;59810;48.800;9.086;2022-10-17T01:43:39;98194.41;;;13.54;88.62
71938;BME280;59810;48.800;9.086;2022-10-17T01:46:12;98192.91;;;13.42;89.43
71938;BME280;59810;48.800;9.086;2022-10-17T01:48:42;98192.91;;;13.42;89.61
71938;BME280;59810;48.800;9.086;2022-10-17T01:51:12;98189.09;;;13.37;89.38
71938;BME280;59810;48.800;9.086;2022-10-17T01:53:51;98194.50;;;13.37;88.98
71938;BME280;59810;48.800;9.086;2022-10-17T01:56:26;98183.91;;;13.36;88.73
71938;BME280;59810;48.800;9.086;2022-10-17T01:58:57;98180.38;;;13.35;89.46
71938;BME280;59810;48.800;9.086;2022-10-17T02:01:25;98182.84;;;13.37;88.85
71938;BME280;59810;48.800;9.086;2022-10-17T02:03:53;98174.56;;;13.27;89.26
71938;BME280;59810;48.800;9.086;2022-10-17T02:06:19;98176.47;;;13.26;89.37
71938;BME280;59810;48.800;9.086;2022-10-17T02:08:47;98176.47;;;13.26;88.98
71938;BME280;59810;48.800;9.086;2022-10-17T02:11:21;98189.06;;;13.16;89.51
71938;BME280;59810;48.800;9.086;2022-10-17T02:29:48;98191.91;;;13.26;89.22
71938;BME280;59810;48.800;9.086;2022-10-17T02:32:27;98192.97;;;13.25;89.40
71938;BME280;59810;48.800;9.086;2022-10-17T02:34:59;98190.59;;;13.28;89.30
71938;BME280;59810;48.800;9.086;2022-10-17T02:37:27;98196.31;;;13.32;88.71
71938;BME280;59810;48.800;9.086;2022-10-17T02:39:56;98201.00;;;13.36;89.02
71938;BME280;59810;48.800;9.086;2022-10-17T02:42:23;98193.69;;;13.37;88.62
71938;BME280;59810;48.800;9.086;2022-10-17T02:44:49;98197.53;;;13.41;88.44
71938;BME280;59810;48.800;9.086;2022-10-17T02:47:22;98197.94;;;13.33;89.17
71938;BME280;59810;48.800;9.086;2022-10-17T02:49:53;98190.41;;;13.35;89.65
71938;BME280;59810;48.800;9.086;2022-10-17T02:57:55;98189.50;;;13.29;89.82
71938;BME280;59810;48.800;9.086;2022-10-17T03:00:38;98193.28;;;13.28;89.45
71938;BME280;59810;48.800;9.086;2022-10-17T03:03:21;98190.84;;;13.27;90.56
71938;BME280;59810;48.800;9.086;2022-10-17T03:05:55;98190.59;;;13.28;90.00
71938;BME280;59810;48.800;9.086;2022-10-17T03:08:21;98188.38;;;13.25;90.18
71938;BME280;59810;48.800;9.086;2022-10-17T03:10:47;98181.31;;;13.24;90.13
71938;BME280;59810;48.800;9.086;2022-10-17T03:13:13;98191.09;;;13.25;89.44
71938;BME280;59810;48.800;9.086;2022-10-17T03:15:38;98188.38;;;13.25;88.74
71938;BME280;59810;48.800;9.086;2022-10-17T03:18:04;98194.38;;;13.27;89.19
71938;BME280;59810;48.800;9.086;2022-10-17T03:20:29;98196.50;;;13.25;88.42
71938;BME280;59810;48.800;9.086;2022-10-17T03:22:55;98189.44;;;13.24;88.77
71938;BME280;59810;48.800;9.086;2022-10-17T03:25:20;98201.63;;;13.22;88.99
71938;BME280;59810;48.800;9.086;2022-10-17T03:27:45;98196.72;;;13.19;88.99
71938;BME280;59810;48.800;9.086;2022-10-17T03:30:14;98199.06;;;13.15;89.23
71938;BME280;59810;48.800;9.086;2022-10-17T03:32:39;98201.16;;;13.08;89.55
71938;BME280;59810;48.800;9.086;2022-10-17T03:35:05;98197.38;;;13.09;89.17
71938;BME280;59810;48.800;9.086;2022-10-17T03:37:30;98194.94;;;13.07;88.97
71938;BME280;59810;48.800;9.086;2022-10-17T03:39:56;98192.78;;;13.09;89.77
71938;BME280;59810;48.800;9.086;2022-10-17T03:42:25;98195.25;;;13.11;89.12
71938;BME280;59810;48.800;9.086;2022-10-17T03:44:50;98198.25;;;13.15;88.84
71938;BME280;59810;48.800;9.086;2022-10-17T03:47:15;98202.88;;;13.14;89.79
71938;BME280;59810;48.800;9.086;2022-10-17T03:49:41;98198.34;;;13.20;89.25
71938;BME280;59810;48.800;9.086;2022-10-17T03:52:11;98204.34;;;13.22;89.19
71938;BME280;59810;48.800;9.086;2022-10-17T03:54:36;98201.31;;;13.18;89.73
71938;BME280;59810;48.800;9.086;2022-10-17T03:57:04;98196.88;;;13.12;89.54
71938;BME280;59810;48.800;9.086;2022-10-17T03:59:29;98206.75;;;13.18;89.13
71938;BME280;59810;48.800;9.086;2022-10-17T04:01:55;98209.66;;;13.17;89.53
71938;BME280;59810;48.800;9.086;2022-10-17T04:04:20;98206.16;;;13.16;88.95
71938;BME280;59810;48.800;9.086;2022-10-17T04:06:45;98212.31;;;13.12;88.63
71938;BME280;59810;48.800;9.086;2022-10-17T04:09:11;98216.09;;;13.11;88.96
71938;BME280;59810;48.800;9.086;2022-10-17T04:11:36;98219.56;;;13.06;88.70
71938;BME280;59810;48.800;9.086;2022-10-17T04:14:02;98233.47;;;12.93;89.10
71938;BME280;59810;48.800;9.086;2022-10-17T04:16:27;98225.50;;;13.03;89.43
71938;BME280;59810;48.800;9.086;2022-10-17T04:18:54;98230.34;;;13.01;89.57
71938;BME280;59810;48.800;9.086;2022-10-17T04:21:21;98236.75;;;12.95;89.18
71938;BME280;59810;48.800;9.086;2022-10-17T04:23:47;98235.69;;;12.96;89.91
71938;BME280;59810;48.800;9.086;2022-10-17T04:26:12;98234.03;;;12.95;89.02
71938;BME280;59810;48.800;9.086;2022-10-17T04:28:37;98240.84;;;12.97;88.98
71938;BME280;59810;48.800;9.086;2022-10-17T04:31:05;98239.47;;;12.95;89.09
71938;BME280;59810;48.800;9.086;2022-10-17T04:33:32;98246.53;;;12.96;89.18
71938;BME280;59810;48.800;9.086;2022-10-17T04:36:06;98246.78;;;12.94;89.26
71938;BME280;59810;48.800;9.086;2022-10-17T04:38:34;98248.09;;;12.92;89.67
71938;BME280;59810;48.800;9.086;2022-10-17T04:41:00;98249.81;;;12.98;88.91
71938;BME280;59810;48.800;9.086;2022-10-17T04:43:28;98249.34;;;13.01;89.24
71938;BME280;59810;48.800;9.086;2022-10-17T04:45:56;98250.47;;;13.05;89.59
71938;BME280;59810;48.800;9.086;2022-10-17T04:48:21;98237.97;;;13.04;89.57
71938;BME280;59810;48.800;9.086;2022-10-17T04:51:00;98242.75;;;12.97;89.60
71938;BME280;59810;48.800;9.086;2022-10-17T04:53:27;98243.00;;;12.95;89.04
71938;BME280;59810;48.800;9.086;2022-10-17T04:55:54;98240.47;;;12.89;89.72
71938;BME280;59810;48.800;9.086;2022-10-17T04:58:20;98241.84;;;12.91;89.59
71938;BME280;59810;48.800;9.086;2022-10-17T05:00:48;98245.72;;;12.95;89.37
71938;BME280;59810;48.800;9.086;2022-10-17T05:03:16;98251.88;;;12.91;89.52
71938;BME280;59810;48.800;9.086;2022-10-17T05:05:42;98260.06;;;12.96;89.04
71938;BME280;59810;48.800;9.086;2022-10-17T05:08:09;98253.59;;;12.97;89.11
71938;BME280;59810;48.800;9.086;2022-10-17T05:10:41;98253.59;;;12.97;90.08
71938;BME280;59810;48.800;9.086;2022-10-17T05:13:10;98247.53;;;12.90;90.34
71938;BME280;59810;48.800;9.086;2022-10-17T05:15:36;98241.78;;;12.86;90.36
71938;BME280;59810;48.800;9.086;2022-10-17T05:18:03;98246.47;;;12.91;89.90
71938;BME280;59810;48.800;9.086;2022-10-17T05:20:28;98247.53;;;12.90;90.05
71938;BME280;59810;48.800;9.086;2022-10-17T05:22:54;98241.09;;;12.96;90.12
71938;BME280;59810;48.800;9.086;2022-10-17T05:25:19;98240.03;;;12.97;89.86
71938;BME280;59810;48.800;9.086;2022-10-17T05:27:45;98244.38;;;12.98;89.83
71938;BME280;59810;48.800;9.086;2022-10-17T05:30:12;98237.06;;;12.98;89.30
71938;BME280;59810;48.800;9.086;2022-10-17T05:32:38;98236.50;;;12.96;89.42
71938;BME280;59810;48.800;9.086;2022-10-17T05:35:04;98236.19;;;12.93;90.17
71938;BME280;59810;48.800;9.086;2022-10-17T05:37:30;98245.44;;;12.97;89.98
71938;BME280;59810;48.800;9.086;2022-10-17T05:39:56;98241.19;;;13.01;90.01
71938;BME280;59810;48.800;9.086;2022-10-17T05:42:21;98247.66;;;13.00;90.14
71938;BME280;59810;48.800;9.086;2022-10-17T05:44:49;98244.47;;;13.03;89.65
71938;BME280;59810;48.800;9.086;2022-10-17T05:47:17;98247.19;;;13.03;89.80
71938;BME280;59810;48.800;9.086;2022-10-17T05:49:42;98252.69;;;13.08;89.95
71938;BME280;59810;48.800;9.086;2022-10-17T05:52:08;98251.59;;;13.09;89.78
71938;BME280;59810;48.800;9.086;2022-10-17T05:54:33;98253.50;;;13.08;89.55
71938;BME280;59810;48.800;9.086;2022-10-17T05:56:59;98258.09;;;13.08;89.69
71938;BME280;59810;48.800;9.086;2022-10-17T05:59:25;98256.16;;;13.03;89.76
71938;BME280;59810;48.800;9.086;2022-10-17T06:01:51;98265.66;;;13.06;89.38
71938;BME280;59810;48.800;9.086;2022-10-17T06:04:17;98261.63;;;13.08;89.24
71938;BME280;59810;48.800;9.086;2022-10-17T06:06:45;98252.75;;;13.13;89.21
71938;BME280;59810;48.800;9.086;2022-10-17T06:09:10;98257.03;;;13.09;89.89
71938;BME280;59810;48.800;9.086;2022-10-17T06:11:36;98254.88;;;13.11;89.21
71938;BME280;59810;48.800;9.086;2022-10-17T06:14:01;98258.97;;;13.14;89.65
71938;BME280;59810;48.800;9.086;2022-10-17T06:16:26;98263.91;;;13.17;89.42
71938;BME280;59810;48.800;9.086;2022-10-17T06:18:52;98257.66;;;13.16;89.33
71938;BME280;59810;48.800;9.086;2022-10-17T06:21:20;98265.78;;;13.16;89.34
71938;BME280;59810;48.800;9.086;2022-10-17T06:23:48;98269.31;;;13.17;89.26
71938;BME280;59810;48.800;9.086;2022-10-17T06:26:14;98260.97;;;13.18;89.25
71938;BME280;59810;48.800;9.086;2022-10-17T06:28:39;98260.72;;;13.20;89.50
71938;BME280;59810;48.800;9.086;2022-10-17T06:31:10;98267.38;;;13.12;89.90
71938;BME280;59810;48.800;9.086;2022-10-17T06:33:36;98277.47;;;13.17;89.45
71938;BME280;59810;48.800;9.086;2022-10-17T06:36:05;98281.03;;;13.17;88.81
71938;BME280;59810;48.800;9.086;2022-10-17T06:38:32;98290.28;;;13.21;88.36
71938;BME280;59810;48.800;9.086;2022-10-17T06:41:09;98297.66;;;13.26;88.34
71938;BME280;59810;48.800;9.086;2022-10-17T06:43:36;98300.69;;;13.29;87.81
71938;BME280;59810;48.800;9.086;2022-10-17T06:46:01;98318.59;;;13.30;87.66
71938;BME280;59810;48.800;9.086;2022-10-17T06:48:26;98320.59;;;13.35;87.21
71938;BME280;59810;48.800;9.086;2022-10-17T06:50:52;98326.41;;;13.44;86.94
71938;BME280;59810;48.800;9.086;2022-10-17T06:53:19;98323.19;;;13.47;87.78
71938;BME280;59810;48.800;9.086;2022-10-17T06:55:50;98328.63;;;13.47;88.06
71938;BME280;59810;48.800;9.086;2022-10-17T06:58:16;98329.75;;;13.51;88.25
71938;BME280;59810;48.800;9.086;2022-10-17T07:00:41;98331.94;;;13.54;88.43
71938;BME280;59810;48.800;9.086;2022-10-17T07:03:06;98330.38;;;13.58;88.90
71938;BME280;59810;48.800;9.086;2022-10-17T07:05:32;98328.53;;;13.63;88.36
71938;BME280;59810;48.800;9.086;2022-10-17T07:07:59;98333.81;;;13.70;88.34
71938;BME280;59810;48.800;9.086;2022-10-17T07:10:25;98335.50;;;13.76;89.04
71938;BME280;59810;48.800;9.086;2022-10-17T07:12:50;98342.69;;;13.87;87.89
71938;BME280;59810;48.800;9.086;2022-10-17T07:15:16;98341.09;;;13.91;88.87
71938;BME280;59810;48.800;9.086;2022-10-17T07:17:41;98334.16;;;14.00;88.27
71938;BME280;59810;48.800;9.086;2022-10-17T07:20:07;98340.47;;;14.06;88.34
71938;BME280;59810;48.800;9.086;2022-10-17T07:22:33;98357.13;;;14.15;88.15
71938;BME280;59810;48.800;9.086;2022-10-17T07:24:58;98356.34;;;14.19;88.19
71938;BME280;59810;48.800;9.086;2022-10-17T07:27:23;98349.88;;;14.25;87.72
71938;BME280;59810;48.800;9.086;2022-10-17T07:29:49;98348.13;;;14.36;87.69
71938;BME280;59810;48.800;9.086;2022-10-17T07:32:14;98349.25;;;14.40;87.49
71938;BME280;59810;48.800;9.086;2022-10-17T07:34:39;98349.63;;;14.49;87.07
71938;BME280;59810;48.800;9.086;2022-10-17T07:37:05;98353.19;;;14.54;86.78
71938;BME280;59810;48.800;9.086;2022-10-17T07:39:31;98358.16;;;14.62;86.60
71938;BME280;59810;48.800;9.086;2022-10-17T07:41:56;98363.16;;;14.71;85.96
71938;BME280;59810;48.800;9.086;2022-10-17T07:44:23;98369.50;;;14.81;85.13
71938;BME280;59810;48.800;9.086;2022-10-17T07:46:48;98361.94;;;14.88;85.85
71938;BME280;59810;48.800;9.086;2022-10-17T07:49:13;98367.47;;;14.99;86.64
71938;BME280;59810;48.800;9.086;2022-10-17T07:51:39;98360.16;;;15.04;85.38
71938;BME280;59810;48.800;9.086;2022-10-17T07:54:05;98365.66;;;15.14;84.61
71938;BME280;59810;48.800;9.086;2022-10-17T07:56:30;98367.91;;;15.22;83.67
71938;BME280;59810;48.800;9.086;2022-10-17T07:58:56;98364.16;;;15.29;83.54
71938;BME280;59810;48.800;9.086;2022-10-17T08:01:22;98363.66;;;15.37;83.20
71938;BME280;59810;48.800;9.086;2022-10-17T08:03:49;98365.06;;;15.44;82.40
71938;BME280;59810;48.800;9.086;2022-10-17T08:06:15;98364.00;;;15.50;81.87
71938;BME280;59810;48.800;9.086;2022-10-17T08:08:44;98368.69;;;15.60;81.79
71938;BME280;59810;48.800;9.086;2022-10-17T08:11:11;98366.59;;;15.67;81.63
71938;BME280;59810;48.800;9.086;2022-10-17T08:13:37;98362.78;;;15.73;81.13
71938;BME280;59810;48.800;9.086;2022-10-17T08:16:06;98365.00;;;15.81;80.98
71938;BME280;59810;48.800;9.086;2022-10-17T08:18:32;98379.47;;;15.92;81.19
71938;BME280;59810;48.800;9.086;2022-10-17T08:20:59;98381.97;;;15.99;81.00
71938;BME280;59810;48.800;9.086;2022-10-17T08:23:25;98373.28;;;16.07;80.93
71938;BME280;59810;48.800;9.086;2022-10-17T08:25:51;98376.03;;;16.17;80.53
71938;BME280;59810;48.800;9.086;2022-10-17T08:28:17;98381.50;;;16.22;80.67
71938;BME280;59810;48.800;9.086;2022-10-17T08:30:42;98374.19;;;16.28;80.48
71938;BME280;59810;48.800;9.086;2022-10-17T08:33:07;98378.81;;;16.37;80.42
71938;BME280;59810;48.800;9.086;2022-10-17T08:35:33;98385.66;;;16.45;80.83
71938;BME280;59810;48.800;9.086;2022-10-17T08:38:01;98391.38;;;16.54;80.74
71938;BME280;59810;48.800;9.086;2022-10-17T08:40:28;98382.69;;;16.62;80.52
71938;BME280;59810;48.800;9.086;2022-10-17T08:45:54;98386.56;;;16.76;79.82
71938;BME280;59810;48.800;9.086;2022-10-17T08:48:26;98384.09;;;16.85;79.07
71938;BME280;59810;48.800;9.086;2022-10-17T08:51:23;98387.13;;;16.98;79.26
71938;BME280;59810;48.800;9.086;2022-10-17T08:54:05;98381.94;;;17.12;79.33
71938;BME280;59810;48.800;9.086;2022-10-17T08:56:42;98390.91;;;17.23;78.85
71938;BME280;59810;48.800;9.086;2022-10-17T08:59:22;98379.72;;;17.34;78.32
71938;BME280;59810;48.800;9.086;2022-10-17T09:02:05;98384.34;;;17.49;78.42
71938;BME280;59810;48.800;9.086;2022-10-17T09:04:54;98379.94;;;17.63;78.11
71938;BME280;59810;48.800;9.086;2022-10-17T09:10:14;98378.25;;;17.93;77.08
71938;BME280;59810;48.800;9.086;2022-10-17T09:18:02;98380.84;;;18.28;76.22
71938;BME280;59810;48.800;9.086;2022-10-17T09:20:56;98379.97;;;18.33;76.16
71938;BME280;59810;48.800;9.086;2022-10-17T09:23:48;98385.41;;;18.38;75.67
71938;BME280;59810;48.800;9.086;2022-10-17T09:26:15;98387.25;;;18.48;75.92
71938;BME280;59810;48.800;9.086;2022-10-17T09:28:42;98387.47;;;18.61;71.03
71938;BME280;59810;48.800;9.086;2022-10-17T09:31:34;98387.97;;;18.74;69.77
71938;BME280;59810;48.800;9.086;2022-10-17T09:34:08;98379.84;;;18.98;67.11
71938;BME280;59810;48.800;9.086;2022-10-17T09:36:38;98383.28;;;19.13;69.52
71938;BME280;59810;48.800;9.086;2022-10-17T09:39:17;98384.03;;;19.24;65.72
71938;BME280;59810;48.800;9.086;2022-10-17T09:41:51;98383.06;;;19.39;65.69
71938;BME280;59810;48.800;9.086;2022-10-17T09:44:18;98391.16;;;19.49;65.35
71938;BME280;59810;48.800;9.086;2022-10-17T09:49:47;98392.22;;;19.82;64.42
71938;BME280;59810;48.800;9.086;2022-10-17T09:52:17;98387.97;;;19.95;63.32
71938;BME280;59810;48.800;9.086;2022-10-17T09:54:52;98385.91;;;20.05;62.49
71938;BME280;59810;48.800;9.086;2022-10-17T09:57:23;98387.97;;;20.18;61.28
71938;BME280;59810;48.800;9.086;2022-10-17T10:00:01;98385.31;;;20.32;65.11
71938;BME280;59810;48.800;9.086;2022-10-17T10:02:29;98392.34;;;20.38;63.87
71938;BME280;59810;48.800;9.086;2022-10-17T10:05:13;98387.03;;;20.47;62.50
71938;BME280;59810;48.800;9.086;2022-10-17T10:08:01;98385.50;;;20.60;60.09
71938;BME280;59810;48.800;9.086;2022-10-17T10:10:30;98383.44;;;20.70;62.21
71938;BME280;59810;48.800;9.086;2022-10-17T10:15:42;98396.84;;;20.91;61.01
71938;BME280;59810;48.800;9.086;2022-10-17T10:18:27;98394.25;;;20.99;60.17
71938;BME280;59810;48.800;9.086;2022-10-17T10:21:12;98396.50;;;21.11;59.72
71938;BME280;59810;48.800;9.086;2022-10-17T10:23:42;98393.31;;;21.23;59.49
71938;BME280;59810;48.800;9.086;2022-10-17T10:26:26;98399.69;;;21.37;56.80
71938;BME280;59810;48.800;9.086;2022-10-17T10:29:00;98405.84;;;21.48;56.14
71938;BME280;59810;48.800;9.086;2022-10-17T10:31:39;98410.34;;;21.71;56.38
71938;BME280;59810;48.800;9.086;2022-10-17T10:34:17;98412.63;;;21.83;55.87
71938;BME280;59810;48.800;9.086;2022-10-17T10:36:49;98413.44;;;21.97;56.49
71938;BME280;59810;48.800;9.086;2022-10-17T10:39:26;98411.13;;;22.04;53.32
71938;BME280;59810;48.800;9.086;2022-10-17T10:41:52;98414.25;;;22.11;52.67
71938;BME280;59810;48.800;9.086;2022-10-17T10:44:22;98418.75;;;22.21;54.44
71938;BME280;59810;48.800;9.086;2022-10-17T10:47:05;98409.09;;;22.23;52.65
71938;BME280;59810;48.800;9.086;2022-10-17T10:49:33;98412.13;;;22.35;50.92
71938;BME280;59810;48.800;9.086;2022-10-17T10:51:59;98401.63;;;22.51;52.66
71938;BME280;59810;48.800;9.086;2022-10-17T10:54:38;98413.41;;;22.65;51.39
71938;BME280;59810;48.800;9.086;2022-10-17T10:57:07;98411.53;;;22.75;48.79
71938;BME280;59810;48.800;9.086;2022-10-17T10:59:59;98411.59;;;22.97;47.78
71938;BME280;59810;48.800;9.086;2022-10-17T11:02:41;98404.72;;;23.08;47.50
71938;BME280;59810;48.800;9.086;2022-10-17T11:05:13;98403.91;;;23.30;48.60
71938;BME280;59810;48.800;9.086;2022-10-17T11:10:22;98403.03;;;23.66;46.71
71938;BME280;59810;48.800;9.086;2022-10-17T11:12:53;98401.31;;;23.78;46.58
71938;BME280;59810;48.800;9.086;2022-10-17T11:15:35;98402.00;;;23.93;45.72
71938;BME280;59810;48.800;9.086;2022-10-17T11:18:13;98403.41;;;24.21;45.13
71938;BME280;59810;48.800;9.086;2022-10-17T11:21:02;98400.22;;;24.36;44.24
71938;BME280;59810;48.800;9.086;2022-10-17T11:26:12;98401.47;;;24.78;42.62
71938;BME280;59810;48.800;9.086;2022-10-17T11:28:39;98398.88;;;25.17;42.83
71938;BME280;59810;48.800;9.086;2022-10-17T11:31:11;98401.63;;;25.25;42.23
71938;BME280;59810;48.800;9.086;2022-10-17T11:33:59;98395.25;;;25.51;42.31
71938;BME280;59810;48.800;9.086;2022-10-17T11:36:30;98391.31;;;25.69;41.39
71938;BME280;59810;48.800;9.086;2022-10-17T11:39:27;98396.06;;;26.07;41.56
71938;BME280;59810;48.800;9.086;2022-10-17T11:41:54;98398.28;;;26.22;40.21
71938;BME280;59810;48.800;9.086;2022-10-17T11:44:36;98399.78;;;26.49;40.73
71938;BME280;59810;48.800;9.086;2022-10-17T11:47:10;98398.09;;;26.56;39.27
71938;BME280;59810;48.800;9.086;2022-10-17T11:49:50;98401.78;;;26.69;38.93
71938;BME280;59810;48.800;9.086;2022-10-17T11:52:37;98397.44;;;26.80;41.23
71938;BME280;59810;48.800;9.086;2022-10-17T12:00:50;98402.19;;;27.21;38.95
71938;BME280;59810;48.800;9.086;2022-10-17T12:09:00;98403.53;;;27.15;37.61
71938;BME280;59810;48.800;9.086;2022-10-17T12:11:50;98399.75;;;27.20;37.83
71938;BME280;59810;48.800;9.086;2022-10-17T12:14:45;98398.78;;;27.37;37.59
71938;BME280;59810;48.800;9.086;2022-10-17T12:22:46;98391.19;;;27.79;37.31
71938;BME280;59810;48.800;9.086;2022-10-17T12:25:17;98392.56;;;27.85;37.35
71938;BME280;59810;48.800;9.086;2022-10-17T12:27:45;98389.56;;;27.90;37.23
71938;BME280;59810;48.800;9.086;2022-10-17T12:33:00;98392.38;;;28.02;37.51
71938;BME280;59810;48.800;9.086;2022-10-17T12:35:29;98382.28;;;27.85;37.96
71938;BME280;59810;48.800;9.086;2022-10-17T12:53:43;98404.00;;;27.38;44.75
71938;BME280;59810;48.800;9.086;2022-10-17T12:56:17;98399.53;;;27.25;45.38
71938;BME280;59810;48.800;9.086;2022-10-17T12:58:48;98410.63;;;27.25;44.55
71938;BME280;59810;48.800;9.086;2022-10-17T13:01:23;98421.53;;;27.09;45.08
71938;BME280;59810;48.800;9.086;2022-10-17T13:03:52;98422.44;;;26.92;46.01
71938;BME280;59810;48.800;9.086;2022-10-17T13:06:23;98421.03;;;26.86;46.65
71938;BME280;59810;48.800;9.086;2022-10-17T13:08:56;98420.41;;;26.60;46.95
71938;BME280;59810;48.800;9.086;2022-10-17T13:11:41;98430.81;;;26.63;46.81
71938;BME280;59810;48.800;9.086;2022-10-17T13:14:17;98423.59;;;26.71;46.34
71938;BME280;59810;48.800;9.086;2022-10-17T13:17:00;98434.69;;;26.41;46.95
71938;BME280;59810;48.800;9.086;2022-10-17T13:19:30;98437.66;;;26.36;47.09
71938;BME280;59810;48.800;9.086;2022-10-17T13:21:58;98438.47;;;26.37;46.43
71938;BME280;59810;48.800;9.086;2022-10-17T13:24:36;98434.44;;;26.55;46.15
71938;BME280;59810;48.800;9.086;2022-10-17T13:27:02;98434.81;;;26.74;46.08
71938;BME280;59810;48.800;9.086;2022-10-17T13:29:28;98429.75;;;26.76;45.41
71938;BME280;59810;48.800;9.086;2022-10-17T13:32:01;98437.88;;;26.81;42.23
71938;BME280;59810;48.800;9.086;2022-10-17T13:34:28;98438.41;;;26.75;43.93
71938;BME280;59810;48.800;9.086;2022-10-17T13:36:56;98436.66;;;26.70;43.40
71938;BME280;59810;48.800;9.086;2022-10-17T13:39:24;98439.56;;;26.44;44.23
71938;BME280;59810;48.800;9.086;2022-10-17T13:41:52;98445.97;;;26.36;44.86
71938;BME280;59810;48.800;9.086;2022-10-17T13:44:20;98448.53;;;26.32;44.13
71938;BME280;59810;48.800;9.086;2022-10-17T13:46:47;98449.63;;;26.49;43.52
71938;BME280;59810;48.800;9.086;2022-10-17T13:49:41;98452.41;;;26.49;42.68
71938;BME280;59810;48.800;9.086;2022-10-17T13:52:17;98452.31;;;26.28;43.37
71938;BME280;59810;48.800;9.086;2022-10-17T13:54:48;98439.75;;;26.30;43.05
71938;BME280;59810;48.800;9.086;2022-10-17T13:57:26;98448.88;;;26.40;41.82
71938;BME280;59810;48.800;9.086;2022-10-17T14:00:00;98451.16;;;26.38;42.68
71938;BME280;59810;48.800;9.086;2022-10-17T14:02:31;98449.69;;;26.31;42.23
71938;BME280;59810;48.800;9.086;2022-10-17T14:05:12;98446.72;;;26.07;42.05
71938;BME280;59810;48.800;9.086;2022-10-17T14:10:23;98450.25;;;26.54;41.32
71938;BME280;59810;48.800;9.086;2022-10-17T14:12:52;98452.06;;;26.50;41.11
71938;BME280;59810;48.800;9.086;2022-10-17T14:15:20;98455.47;;;26.56;41.27
71938;BME280;59810;48.800;9.086;2022-10-17T14:17:54;98450.25;;;26.54;42.56
71938;BME280;59810;48.800;9.086;2022-10-17T14:20:21;98454.41;;;26.40;41.74
71938;BME280;59810;48.800;9.086;2022-10-17T14:22:50;98449.88;;;26.26;43.13
71938;BME280;59810;48.800;9.086;2022-10-17T14:25:33;98451.44;;;26.07;43.39
71938;BME280;59810;48.800;9.086;2022-10-17T14:30:45;98451.00;;;25.87;41.50
71938;BME280;59810;48.800;9.086;2022-10-17T14:33:23;98451.19;;;25.82;42.55
71938;BME280;59810;48.800;9.086;2022-10-17T14:35:52;98449.56;;;25.64;44.07
71938;BME280;59810;48.800;9.086;2022-10-17T14:38:18;98454.75;;;25.65;44.17
71938;BME280;59810;48.800;9.086;2022-10-17T14:40:55;98457.69;;;25.69;43.33
71938;BME280;59810;48.800;9.086;2022-10-17T14:43:24;98459.97;;;25.67;44.36
71938;BME280;59810;48.800;9.086;2022-10-17T14:45:50;98459.03;;;25.46;43.97
71938;BME280;59810;48.800;9.086;2022-10-17T14:48:19;98460.47;;;25.60;43.43
71938;BME280;59810;48.800;9.086;2022-10-17T14:51:14;98461.63;;;25.51;43.61
71938;BME280;59810;48.800;9.086;2022-10-17T14:56:34;98450.03;;;24.88;44.92
71938;BME280;59810;48.800;9.086;2022-10-17T14:59:02;98454.44;;;24.72;47.02
71938;BME280;59810;48.800;9.086;2022-10-17T15:01:31;98458.78;;;24.64;46.57